Time;durP1;ratioP1;P1;durP2;ratioP2;P2;SDS_P1;SDS_P2;PMS_P1;PMS_P2;Temp;Humidity;BMP_temperature;BMP_pressure;BME280_temperature;BME280_humidity;BME280_pressure;Samples;Min_cycle;Max_cycle;Signal;HPM_P1;HPM_P2
2022/06/01 00:00:12;;;;;;;2.70;1.23;;;15.70;90.20;;;;;;6251034;28;20041;-83
2022/06/01 00:03:14;;;;;;;3.35;1.30;;;15.60;90.30;;;;;;6251225;28;20047;-83
2022/06/01 00:06:17;;;;;;;4.15;1.60;;;15.50;90.50;;;;;;6252346;28;20077;-81
2022/06/01 00:09:19;;;;;;;2.85;1.58;;;15.40;90.70;;;;;;6250487;28;20500;-82
2022/06/01 00:12:20;;;;;;;2.20;1.75;;;15.30;90.90;;;;;;6250577;28;20052;-83
2022/06/01 00:15:24;;;;;;;3.78;1.65;;;15.30;91.10;;;;;;6253202;28;20501;-81
2022/06/01 00:18:26;;;;;;;1.73;1.40;;;15.20;91.20;;;;;;6254584;28;20157;-81
2022/06/01 00:21:29;;;;;;;2.05;1.20;;;15.20;91.30;;;;;;6253119;28;20056;-82
2022/06/01 00:24:30;;;;;;;2.22;1.50;;;15.10;91.50;;;;;;6251761;28;20401;-82
2022/06/01 00:27:32;;;;;;;2.03;1.63;;;15.10;91.60;;;;;;6253633;28;20421;-83
2022/06/01 00:30:34;;;;;;;4.78;1.58;;;15.10;91.60;;;;;;6253930;28;20049;-82
2022/06/01 00:33:38;;;;;;;3.58;1.58;;;15.10;91.70;;;;;;6248349;28;20049;-84
2022/06/01 00:36:41;;;;;;;7.18;3.25;;;15.00;91.80;;;;;;6254006;28;20543;-83
2022/06/01 00:39:44;;;;;;;2.25;1.33;;;14.90;91.90;;;;;;6257340;28;20115;-80
2022/06/01 00:42:48;;;;;;;2.25;1.38;;;14.90;92.10;;;;;;6255481;28;20060;-81
2022/06/01 00:45:50;;;;;;;3.92;1.80;;;14.90;92.20;;;;;;6259021;28;20055;-82
2022/06/01 00:48:56;;;;;;;5.43;1.50;;;14.80;92.20;;;;;;6257428;28;20055;-83
2022/06/01 00:52:00;;;;;;;2.15;1.40;;;14.70;92.30;;;;;;6254963;28;20049;-83
2022/06/01 00:55:03;;;;;;;4.18;1.60;;;14.60;92.40;;;;;;6250887;28;20049;-82
2022/06/01 00:58:11;;;;;;;2.30;1.50;;;14.60;92.60;;;;;;6256382;28;20467;-82
2022/06/01 01:01:15;;;;;;;3.93;1.53;;;14.50;92.80;;;;;;6257424;28;20051;-83
2022/06/01 01:04:17;;;;;;;3.30;1.70;;;14.40;92.90;;;;;;6257914;28;20348;-84
2022/06/01 01:07:20;;;;;;;4.15;1.50;;;14.30;93.10;;;;;;6257842;28;20041;-83
2022/06/01 01:10:22;;;;;;;5.38;1.77;;;14.20;93.30;;;;;;6257713;28;20515;-83
2022/06/01 01:13:24;;;;;;;3.67;1.67;;;14.10;93.40;;;;;;6257098;28;20527;-83
2022/06/01 01:16:28;;;;;;;3.25;2.03;;;14.10;93.60;;;;;;6258806;28;20113;-84
2022/06/01 01:19:34;;;;;;;3.55;1.85;;;14.00;93.60;;;;;;6257472;28;20049;-84
2022/06/01 01:22:44;;;;;;;2.45;1.70;;;13.90;93.70;;;;;;6257663;28;20080;-85
2022/06/01 01:25:47;;;;;;;3.00;2.28;;;13.80;93.90;;;;;;6258521;28;20099;-79
2022/06/01 01:28:49;;;;;;;4.63;1.90;;;13.80;93.90;;;;;;6254242;28;20057;-82
2022/06/01 01:31:50;;;;;;;3.38;1.58;;;13.70;94.00;;;;;;6256360;28;20103;-82
2022/06/01 01:34:52;;;;;;;2.10;1.77;;;13.60;94.00;;;;;;6256317;28;20056;-82
2022/06/01 01:37:54;;;;;;;2.65;1.63;;;13.60;94.30;;;;;;6256430;28;20061;-82
2022/06/01 01:41:05;;;;;;;2.63;1.60;;;13.50;94.30;;;;;;6256024;28;20060;-82
2022/06/01 01:44:11;;;;;;;2.50;1.42;;;13.40;94.20;;;;;;6256146;28;20045;-81
2022/06/01 01:47:13;;;;;;;2.75;1.90;;;13.40;94.30;;;;;;6256287;28;20521;-82
2022/06/01 01:50:15;;;;;;;2.92;1.63;;;13.40;94.40;;;;;;6255422;28;20041;-81
2022/06/01 01:53:17;;;;;;;3.47;2.03;;;13.40;94.50;;;;;;6252863;28;20052;-82
2022/06/01 01:56:30;;;;;;;3.08;1.77;;;13.40;94.60;;;;;;6232737;28;20505;-81
2022/06/01 01:59:43;;;;;;;3.85;1.80;;;13.30;94.50;;;;;;6233166;28;20056;-81
2022/06/01 02:02:52;;;;;;;2.55;1.85;;;13.20;94.60;;;;;;6234320;28;20052;-81
2022/06/01 02:06:05;;;;;;;6.13;2.42;;;13.10;94.70;;;;;;6232299;28;20049;-81
2022/06/01 02:09:09;;;;;;;5.15;2.33;;;13.00;94.80;;;;;;6229627;28;20050;-80
2022/06/01 02:15:37;;;;;;;3.15;2.03;;;12.90;95.00;;;;;;6228641;28;20058;-81
2022/06/01 02:18:44;;;;;;;3.30;1.98;;;12.90;95.10;;;;;;6228775;28;20204;-81
2022/06/01 02:21:46;;;;;;;3.40;2.10;;;12.80;95.20;;;;;;6229721;28;20080;-81
2022/06/01 02:24:48;;;;;;;7.05;1.92;;;12.70;95.20;;;;;;6229861;28;20633;-81
2022/06/01 02:27:53;;;;;;;4.50;1.83;;;12.70;95.30;;;;;;6230384;28;20133;-80
2022/06/01 02:30:56;;;;;;;3.40;1.88;;;12.60;95.40;;;;;;6229807;28;20414;-81
2022/06/01 02:33:59;;;;;;;3.90;1.70;;;12.60;95.40;;;;;;6230229;28;20131;-82
2022/06/01 02:37:04;;;;;;;3.88;2.10;;;12.50;95.40;;;;;;6252158;28;20053;-82
2022/06/01 02:40:10;;;;;;;3.28;1.73;;;12.50;95.50;;;;;;6254544;28;20504;-82
2022/06/01 02:43:14;;;;;;;3.97;1.60;;;12.40;95.50;;;;;;6254656;28;20033;-82
2022/06/01 02:46:15;;;;;;;4.10;1.83;;;12.30;95.50;;;;;;6253779;28;20053;-85
2022/06/01 02:49:18;;;;;;;4.35;2.28;;;12.30;95.60;;;;;;6253027;28;20191;-84
2022/06/01 02:52:21;;;;;;;6.57;2.00;;;12.20;95.80;;;;;;6253242;28;20045;-84
2022/06/01 02:55:24;;;;;;;2.75;1.80;;;12.10;95.80;;;;;;6240464;28;20415;-83
2022/06/01 02:58:28;;;;;;;2.42;1.98;;;12.10;95.90;;;;;;6248969;28;20064;-84
2022/06/01 03:01:29;;;;;;;3.35;1.90;;;12.00;95.90;;;;;;6252936;28;20069;-81
2022/06/01 03:04:31;;;;;;;2.03;1.58;;;12.00;95.90;;;;;;6251680;28;20050;-80
2022/06/01 03:07:33;;;;;;;3.53;2.05;;;11.90;95.90;;;;;;6250753;28;20124;-81
2022/06/01 03:10:35;;;;;;;5.05;2.53;;;11.80;96.00;;;;;;6250666;28;20050;-81
2022/06/01 03:13:38;;;;;;;3.75;2.05;;;11.80;96.10;;;;;;6250747;28;20124;-83
2022/06/01 03:16:40;;;;;;;4.05;2.17;;;11.70;96.00;;;;;;6250704;28;20048;-81
2022/06/01 03:19:42;;;;;;;3.60;2.10;;;11.70;96.00;;;;;;6250474;28;20073;-81
2022/06/01 03:22:44;;;;;;;11.18;3.13;;;11.70;95.90;;;;;;6250512;28;20052;-81
2022/06/01 03:25:46;;;;;;;3.28;2.05;;;11.80;95.80;;;;;;6250499;28;20053;-81
2022/06/01 03:28:50;;;;;;;3.45;1.92;;;11.90;95.70;;;;;;6249904;28;20045;-81
2022/06/01 03:31:51;;;;;;;3.88;2.15;;;12.00;95.70;;;;;;6250062;28;20049;-81
2022/06/01 03:34:53;;;;;;;2.88;2.33;;;12.10;95.50;;;;;;6250362;28;20493;-79
2022/06/01 03:37:57;;;;;;;3.88;2.42;;;12.20;95.30;;;;;;6249042;28;20488;-79
2022/06/01 03:40:59;;;;;;;4.30;2.38;;;12.20;95.40;;;;;;6249184;28;20045;-81
2022/06/01 03:47:23;;;;;;;4.75;1.90;;;12.30;95.40;;;;;;6249250;28;20046;-82
2022/06/01 03:50:25;;;;;;;5.82;2.28;;;12.40;95.40;;;;;;6251459;28;20057;-82
2022/06/01 03:53:29;;;;;;;21.27;4.60;;;12.40;95.30;;;;;;6252039;28;20627;-81
2022/06/01 03:56:32;;;;;;;16.67;2.90;;;12.60;95.30;;;;;;6247975;28;20049;-81
2022/06/01 03:59:36;;;;;;;5.45;2.17;;;12.70;95.80;;;;;;6249512;28;20691;-81
2022/06/01 04:02:38;;;;;;;7.72;2.67;;;12.90;95.80;;;;;;6250365;28;20045;-81
2022/06/01 04:05:40;;;;;;;3.25;1.63;;;13.20;95.50;;;;;;6248995;28;20049;-81
2022/06/01 04:08:41;;;;;;;5.40;1.50;;;13.40;94.80;;;;;;6249533;28;20131;-80
2022/06/01 04:11:43;;;;;;;6.53;1.80;;;13.40;94.50;;;;;;6248856;28;20042;-81
2022/06/01 04:14:46;;;;;;;2.78;1.60;;;13.40;94.20;;;;;;6249343;28;20124;-80
2022/06/01 04:17:48;;;;;;;2.10;1.33;;;13.50;94.00;;;;;;6249824;28;20570;-82
2022/06/01 04:20:53;;;;;;;6.22;1.90;;;13.60;94.00;;;;;;6248699;28;20524;-82
2022/06/01 04:24:03;;;;;;;3.15;1.58;;;13.90;93.70;;;;;;6249072;28;20049;-81
2022/06/01 04:27:05;;;;;;;3.58;1.48;;;14.20;93.20;;;;;;6249807;28;20057;-80
2022/06/01 04:30:12;;;;;;;2.15;1.38;;;14.30;92.80;;;;;;6250065;28;20057;-80
2022/06/01 04:33:14;;;;;;;3.72;1.60;;;14.40;92.70;;;;;;6249003;28;20556;-81
2022/06/01 04:36:15;;;;;;;4.60;1.70;;;14.70;92.60;;;;;;6249395;28;20057;-81
2022/06/01 04:39:17;;;;;;;3.50;1.67;;;16.40;91.20;;;;;;6249754;28;20045;-80
2022/06/01 04:42:19;;;;;;;2.17;1.50;;;17.00;88.40;;;;;;6250112;28;20053;-83
2022/06/01 04:45:22;;;;;;;1.58;1.30;;;17.70;88.20;;;;;;6249555;28;20521;-82
2022/06/01 04:48:25;;;;;;;2.20;1.40;;;19.90;81.40;;;;;;6248476;28;20501;-81
2022/06/01 04:51:27;;;;;;;2.28;1.05;;;21.90;74.00;;;;;;6249042;28;20076;-83
2022/06/01 04:54:28;;;;;;;3.47;1.40;;;23.50;67.50;;;;;;6249275;28;20056;-80
2022/06/01 04:57:30;;;;;;;2.17;1.00;;;24.50;61.80;;;;;;6248329;28;20052;-82
2022/06/01 05:00:34;;;;;;;4.97;1.17;;;25.10;59.40;;;;;;6224911;28;20140;-81
2022/06/01 05:03:35;;;;;;;5.50;1.15;;;26.20;55.60;;;;;;6225026;28;20057;-81
2022/06/01 05:06:37;;;;;;;4.50;1.40;;;27.20;52.40;;;;;;6225784;28;20042;-83
2022/06/01 05:09:39;;;;;;;2.38;1.15;;;27.80;49.30;;;;;;6224703;28;20421;-82
2022/06/01 05:12:41;;;;;;;2.15;1.00;;;28.70;47.10;;;;;;6224283;28;20425;-83
2022/06/01 05:15:47;;;;;;;5.88;1.23;;;29.40;44.90;;;;;;6224786;28;20402;-83
2022/06/01 05:18:49;;;;;;;2.97;1.17;;;30.00;43.00;;;;;;6225409;28;20056;-82
2022/06/01 05:21:51;;;;;;;4.38;1.10;;;30.80;41.50;;;;;;6225364;28;20046;-81
2022/06/01 05:24:53;;;;;;;6.43;1.50;;;30.70;40.40;;;;;;6229297;28;20068;-82
2022/06/01 05:27:54;;;;;;;3.00;1.08;;;30.80;39.70;;;;;;6235971;28;20046;-82
2022/06/01 05:30:58;;;;;;;2.70;1.27;;;31.30;39.40;;;;;;6228814;28;20083;-82
2022/06/01 05:34:00;;;;;;;2.75;1.00;;;32.50;37.80;;;;;;6231426;28;20056;-82
2022/06/01 05:37:02;;;;;;;3.80;0.90;;;34.20;35.60;;;;;;6242560;28;20405;-80
2022/06/01 05:40:04;;;;;;;1.33;1.00;;;35.10;33.60;;;;;;6255197;28;20107;-84
2022/06/01 05:43:11;;;;;;;5.72;1.25;;;34.70;33.60;;;;;;6251642;28;20126;-82
2022/06/01 05:46:14;;;;;;;10.27;1.67;;;33.50;34.80;;;;;;6253067;28;20063;-81
2022/06/01 05:49:16;;;;;;;4.75;1.60;;;33.60;35.00;;;;;;6251251;28;20045;-79
2022/06/01 05:52:18;;;;;;;7.32;1.20;;;33.80;34.60;;;;;;6251694;28;20045;-83
2022/06/01 05:55:20;;;;;;;3.88;1.30;;;34.00;34.60;;;;;;6251628;28;20053;-80
2022/06/01 05:58:26;;;;;;;3.38;1.02;;;34.90;33.80;;;;;;6251986;28;20051;-83
2022/06/01 06:01:29;;;;;;;4.13;1.33;;;35.60;32.90;;;;;;6227673;28;20069;-78
2022/06/01 06:04:31;;;;;;;1.98;0.65;;;35.70;32.30;;;;;;6227751;28;20068;-80
2022/06/01 06:07:33;;;;;;;5.43;1.15;;;35.90;32.10;;;;;;6250671;28;20088;-84
2022/06/01 06:10:34;;;;;;;7.95;0.85;;;36.20;31.40;;;;;;6250890;28;20105;-84
2022/06/01 06:13:36;;;;;;;5.22;1.02;;;36.20;31.10;;;;;;6250123;28;20056;-84
2022/06/01 06:16:43;;;;;;;1.42;0.80;;;36.30;31.10;;;;;;6249972;28;20080;-81
2022/06/01 06:19:44;;;;;;;4.88;1.10;;;36.60;30.90;;;;;;6250047;28;20049;-83
2022/06/01 06:22:46;;;;;;;1.17;0.90;;;37.20;30.30;;;;;;6250847;28;20050;-81
2022/06/01 06:25:48;;;;;;;2.10;1.08;;;37.20;30.00;;;;;;6250564;28;20516;-79
2022/06/01 06:28:50;;;;;;;5.10;1.20;;;37.10;30.20;;;;;;6249346;28;20073;-80
2022/06/01 06:31:53;;;;;;;2.55;1.15;;;37.40;29.70;;;;;;6249340;28;20056;-80
2022/06/01 06:34:55;;;;;;;5.13;1.13;;;37.70;29.80;;;;;;6230711;28;20374;-81
2022/06/01 06:37:57;;;;;;;2.58;0.90;;;37.90;29.30;;;;;;6241746;28;20052;-84
2022/06/01 06:41:00;;;;;;;3.80;0.93;;;37.50;29.70;;;;;;6249327;28;20048;-80
2022/06/01 06:44:02;;;;;;;2.67;1.00;;;37.70;29.80;;;;;;6247448;28;20033;-80
2022/06/01 06:47:05;;;;;;;3.33;1.23;;;38.10;29.50;;;;;;6250771;28;20061;-81
2022/06/01 06:50:10;;;;;;;5.40;1.42;;;38.20;29.60;;;;;;6249847;28;20547;-80
2022/06/01 06:53:12;;;;;;;1.85;1.10;;;38.20;29.60;;;;;;6249082;28;20061;-82
2022/06/01 06:56:15;;;;;;;1.42;0.77;;;38.20;29.70;;;;;;6251448;28;20053;-82
2022/06/01 06:59:17;;;;;;;1.70;0.95;;;38.10;30.00;;;;;;6241259;28;20067;-79
2022/06/01 07:02:20;;;;;;;2.83;1.08;;;38.10;29.90;;;;;;6242632;28;20168;-81
2022/06/01 07:08:39;;;;;;;2.70;1.13;;;37.60;30.10;;;;;;6249024;28;20037;-80
2022/06/01 07:11:40;;;;;;;2.47;1.23;;;37.90;30.10;;;;;;6250645;28;20052;-81
2022/06/01 07:14:42;;;;;;;2.90;1.00;;;38.20;29.70;;;;;;6250365;28;20568;-79
2022/06/01 07:17:45;;;;;;;4.25;1.05;;;38.20;30.20;;;;;;6249624;28;20057;-80
2022/06/01 07:20:48;;;;;;;6.95;1.38;;;38.10;29.30;;;;;;6249155;28;20041;-81
2022/06/01 07:23:50;;;;;;;3.08;1.00;;;37.80;29.60;;;;;;6252220;28;20048;-82
2022/06/01 07:26:52;;;;;;;6.82;1.38;;;38.00;29.50;;;;;;6251171;28;20056;-79
2022/06/01 07:29:54;;;;;;;2.60;0.65;;;38.20;29.10;;;;;;6251090;28;20092;-78
2022/06/01 07:32:57;;;;;;;3.85;0.70;;;38.20;28.50;;;;;;6246209;28;20037;-79
2022/06/01 07:36:01;;;;;;;1.83;0.73;;;38.30;28.30;;;;;;6240297;28;20046;-80
2022/06/01 07:45:54;;;;;;;2.67;0.52;;;39.20;27.00;;;;;;6248761;28;20045;-78
2022/06/01 07:48:57;;;;;;;2.50;0.68;;;39.40;26.90;;;;;;6249449;28;20080;-81
2022/06/01 07:51:59;;;;;;;2.13;0.82;;;39.70;26.20;;;;;;6249577;28;20052;-80
2022/06/01 07:55:01;;;;;;;1.48;0.38;;;39.60;26.10;;;;;;6250015;28;20056;-80
2022/06/01 07:58:03;;;;;;;1.92;0.60;;;39.70;26.20;;;;;;6251156;28;20428;-79
2022/06/01 08:01:05;;;;;;;2.50;0.85;;;39.70;26.10;;;;;;6248596;28;20054;-79
2022/06/01 08:04:09;;;;;;;4.97;1.00;;;40.30;25.70;;;;;;6249513;28;20055;-79
2022/06/01 08:07:11;;;;;;;3.03;0.80;;;40.30;25.60;;;;;;6242954;28;20052;-80
2022/06/01 08:10:15;;;;;;;1.33;0.30;;;40.20;25.60;;;;;;6250012;28;20511;-79
2022/06/01 08:13:17;;;;;;;2.58;0.30;;;40.30;25.60;;;;;;6249098;28;20053;-81
2022/06/01 08:16:18;;;;;;;1.20;0.40;;;40.50;25.30;;;;;;6249499;28;20129;-81
2022/06/01 08:19:22;;;;;;;1.80;0.82;;;40.80;25.30;;;;;;6248963;28;20120;-79
2022/06/01 08:22:23;;;;;;;6.53;0.80;;;40.90;25.30;;;;;;6248108;28;20052;-80
2022/06/01 08:25:26;;;;;;;6.40;0.57;;;41.30;24.90;;;;;;6246823;28;20045;-80
2022/06/01 08:28:28;;;;;;;4.32;0.82;;;41.40;24.70;;;;;;6247079;28;20057;-79
2022/06/01 08:31:31;;;;;;;6.97;0.60;;;41.40;24.50;;;;;;6250689;28;20108;-80
2022/06/01 08:34:35;;;;;;;3.80;0.60;;;41.50;24.40;;;;;;6249538;28;20049;-79
2022/06/01 08:37:37;;;;;;;1.65;0.52;;;41.60;24.40;;;;;;6241213;28;20475;-81
2022/06/01 08:40:49;;;;;;;2.53;0.45;;;41.60;24.10;;;;;;6248798;28;20045;-79
2022/06/01 08:43:54;;;;;;;1.23;0.30;;;41.70;24.20;;;;;;6250014;28;20050;-83
2022/06/01 08:46:59;;;;;;;1.10;0.52;;;41.60;24.20;;;;;;6236563;28;20061;-83
2022/06/01 08:50:07;;;;;;;1.00;0.40;;;41.20;24.20;;;;;;6227047;28;20066;-84
2022/06/01 08:53:10;;;;;;;2.42;0.50;;;40.30;24.70;;;;;;6227663;28;20061;-81
2022/06/01 08:56:15;;;;;;;1.85;0.50;;;39.80;24.80;;;;;;6222946;28;20076;-80
2022/06/01 08:59:26;;;;;;;4.85;0.82;;;39.30;25.00;;;;;;6228846;28;20092;-83
2022/06/01 09:02:40;;;;;;;1.92;0.60;;;39.20;25.20;;;;;;6246712;28;20057;-82
2022/06/01 09:05:46;;;;;;;1.42;0.57;;;39.00;25.20;;;;;;6254679;28;20055;-82
2022/06/01 09:08:52;;;;;;;2.47;0.68;;;38.70;25.40;;;;;;6254119;28;20052;-84
2022/06/01 09:11:55;;;;;;;1.17;0.40;;;39.00;25.50;;;;;;6254232;28;20049;-83
2022/06/01 09:14:59;;;;;;;0.90;0.30;;;39.10;25.40;;;;;;6253957;28;20049;-83
2022/06/01 09:18:01;;;;;;;4.05;0.73;;;39.20;25.40;;;;;;6254619;28;20512;-81
2022/06/01 09:24:27;;;;;;;4.38;0.82;;;40.10;25.10;;;;;;6253892;28;20049;-81
2022/06/01 09:27:36;;;;;;;7.07;0.70;;;40.30;25.00;;;;;;6254965;28;20095;-81
2022/06/01 09:30:42;;;;;;;2.03;0.95;;;40.30;24.90;;;;;;6254140;28;20049;-81
2022/06/01 09:33:43;;;;;;;3.22;0.75;;;40.20;25.30;;;;;;6253801;28;20056;-82
2022/06/01 09:36:54;;;;;;;2.70;0.63;;;40.10;24.90;;;;;;6246218;28;20095;-81
2022/06/01 09:39:59;;;;;;;0.80;0.35;;;40.30;25.00;;;;;;6253984;28;20050;-81
2022/06/01 09:43:01;;;;;;;1.85;0.47;;;40.30;24.80;;;;;;6253123;28;20048;-81
2022/06/01 09:46:03;;;;;;;4.63;0.80;;;40.30;25.00;;;;;;6233116;28;20050;-81
2022/06/01 09:49:10;;;;;;;2.70;0.20;;;40.10;25.10;;;;;;6236444;28;20049;-81
2022/06/01 09:52:22;;;;;;;4.82;0.60;;;40.10;25.00;;;;;;6253040;28;20041;-81
2022/06/01 09:55:25;;;;;;;5.90;0.50;;;40.00;25.20;;;;;;6253154;28;20164;-81
2022/06/01 10:08:42;;;;;;;0.60;0.28;;;38.80;25.70;;;;;;6246375;28;20042;-79
2022/06/01 10:11:47;;;;;;;2.95;0.52;;;38.00;25.80;;;;;;6249128;28;20060;-83
2022/06/01 10:14:52;;;;;;;2.35;0.60;;;36.60;26.40;;;;;;6234035;28;20188;-82
2022/06/01 10:17:59;;;;;;;2.22;0.57;;;35.20;27.30;;;;;;6244423;28;20045;-82
2022/06/01 10:21:06;;;;;;;7.35;0.50;;;34.10;28.10;;;;;;6231563;28;20046;-79
2022/06/01 10:24:15;;;;;;;1.15;0.40;;;33.20;28.70;;;;;;6225569;28;20054;-79
2022/06/01 10:27:20;;;;;;;3.35;0.43;;;32.70;29.20;;;;;;6225590;28;20393;-80
2022/06/01 10:30:26;;;;;;;3.30;0.50;;;32.30;29.50;;;;;;6226469;28;20085;-80
2022/06/01 10:33:32;;;;;;;6.20;0.80;;;32.00;29.50;;;;;;6225998;28;20398;-80
2022/06/01 10:36:42;;;;;;;2.97;0.43;;;31.70;29.80;;;;;;6245165;28;20145;-79
2022/06/01 10:39:51;;;;;;;5.68;0.70;;;31.30;29.90;;;;;;6250896;28;20049;-79
2022/06/01 10:46:32;;;;;;;4.32;0.52;;;30.80;30.50;;;;;;6250938;28;20481;-81
2022/06/01 10:49:46;;;;;;;1.40;0.60;;;30.80;30.70;;;;;;6250542;28;20651;-80
2022/06/01 10:52:55;;;;;;;1.10;0.50;;;30.80;30.40;;;;;;6251278;28;20037;-79
2022/06/01 10:55:59;;;;;;;1.75;0.55;;;30.70;30.60;;;;;;6252070;28;20053;-81
2022/06/01 10:59:04;;;;;;;1.30;0.40;;;30.50;31.10;;;;;;6252900;28;20061;-82
2022/06/01 11:02:21;;;;;;;4.50;0.43;;;30.50;31.40;;;;;;6252096;28;20057;-82
2022/06/01 11:05:31;;;;;;;3.00;0.60;;;30.50;31.50;;;;;;6250911;28;20053;-83
2022/06/01 11:08:47;;;;;;;8.23;1.20;;;30.70;30.80;;;;;;6251871;28;20467;-83
2022/06/01 11:11:59;;;;;;;8.13;0.70;;;31.00;30.70;;;;;;6253377;28;20047;-83
2022/06/01 11:15:11;;;;;;;7.25;0.63;;;30.90;30.60;;;;;;6252512;28;20072;-79
2022/06/01 11:18:29;;;;;;;2.90;0.22;;;30.70;30.20;;;;;;6250146;28;20136;-79
2022/06/01 11:21:39;;;;;;;1.10;0.40;;;30.60;30.00;;;;;;6238183;28;20498;-82
2022/06/01 11:25:10;;;;;;;2.55;0.40;;;30.40;30.10;;;;;;6225782;28;20425;-79
2022/06/01 11:28:33;;;;;;;3.03;0.70;;;30.50;30.70;;;;;;6224538;28;20045;-82
2022/06/01 11:31:37;;;;;;;4.13;0.50;;;30.60;30.10;;;;;;6225099;28;20045;-82
2022/06/01 11:34:46;;;;;;;1.63;0.30;;;30.50;29.60;;;;;;6228432;28;20068;-83
2022/06/01 11:37:54;;;;;;;2.22;0.57;;;30.40;29.60;;;;;;6246348;28;20541;-82
2022/06/01 11:41:02;;;;;;;11.52;1.15;;;30.40;29.00;;;;;;6226335;28;20053;-81
2022/06/01 11:44:09;;;;;;;3.78;0.60;;;30.40;29.00;;;;;;6241087;28;20045;-80
2022/06/01 11:47:15;;;;;;;9.93;0.60;;;30.50;28.70;;;;;;6250613;28;20187;-82
2022/06/01 11:50:25;;;;;;;1.63;0.63;;;30.50;28.90;;;;;;6250404;28;20052;-82
2022/06/01 11:53:35;;;;;;;2.13;0.43;;;30.50;29.30;;;;;;6249289;28;20046;-82
2022/06/01 11:56:43;;;;;;;3.38;0.60;;;30.30;29.50;;;;;;6248216;28;20049;-81
2022/06/01 11:59:53;;;;;;;6.30;0.73;;;30.50;28.50;;;;;;6249239;28;20061;-81
2022/06/01 12:02:55;;;;;;;2.03;0.20;;;30.90;29.10;;;;;;6249335;28;20049;-81
2022/06/01 12:06:01;;;;;;;4.55;0.85;;;30.90;28.30;;;;;;6239067;28;20053;-82
2022/06/01 12:09:05;;;;;;;3.57;0.43;;;30.80;28.30;;;;;;6250827;28;20056;-82
2022/06/01 12:12:22;;;;;;;0.40;0.30;;;30.80;27.70;;;;;;6249602;28;20049;-80
2022/06/01 12:15:32;;;;;;;2.97;0.40;;;30.80;27.20;;;;;;6248962;28;20074;-83
2022/06/01 12:18:35;;;;;;;11.15;2.33;;;30.50;27.80;;;;;;6249614;28;20576;-82
2022/06/01 12:21:53;;;;;;;1.60;0.50;;;30.50;28.40;;;;;;6249587;28;20072;-84
2022/06/01 12:28:32;;;;;;;1.20;0.30;;;31.00;27.90;;;;;;6251931;28;20049;-81
2022/06/01 12:31:37;;;;;;;3.72;0.45;;;31.10;27.40;;;;;;6249088;28;20107;-80
2022/06/01 12:34:55;;;;;;;7.68;0.50;;;31.00;27.80;;;;;;6252441;28;20052;-81
2022/06/01 12:38:03;;;;;;;11.38;0.88;;;31.20;28.20;;;;;;6252819;28;20133;-80
2022/06/01 12:41:19;;;;;;;10.68;0.65;;;31.40;27.80;;;;;;6253346;28;20454;-82
2022/06/01 12:44:22;;;;;;;1.60;0.80;;;31.30;27.40;;;;;;6252552;28;20042;-81
2022/06/01 12:47:29;;;;;;;8.88;0.98;;;31.10;27.60;;;;;;6252652;28;20416;-81
2022/06/01 12:50:33;;;;;;;0.70;0.22;;;31.20;28.20;;;;;;6253022;28;20128;-80
2022/06/01 12:53:42;;;;;;;3.72;0.63;;;31.30;28.20;;;;;;6252449;28;20044;-82
2022/06/01 12:56:48;;;;;;;0.68;0.35;;;31.40;28.00;;;;;;6249866;28;20038;-82
2022/06/01 12:59:56;;;;;;;1.92;0.25;;;31.30;28.10;;;;;;6252904;28;20049;-83
2022/06/01 13:03:00;;;;;;;1.65;0.17;;;31.30;28.10;;;;;;6251859;28;20048;-83
2022/06/01 13:06:09;;;;;;;0.20;0.20;;;31.10;28.00;;;;;;6252492;28;20111;-83
2022/06/01 13:09:12;;;;;;;2.80;0.60;;;31.00;28.10;;;;;;6252038;28;20074;-83
2022/06/01 13:12:18;;;;;;;2.97;0.37;;;31.00;28.10;;;;;;6251400;28;20099;-83
2022/06/01 13:15:24;;;;;;;5.93;0.40;;;30.90;28.00;;;;;;6252113;28;20037;-82
2022/06/01 13:18:33;;;;;;;13.38;0.70;;;30.90;28.20;;;;;;6252754;28;20049;-82
2022/06/01 13:21:37;;;;;;;1.70;0.40;;;31.00;28.10;;;;;;6253125;28;20432;-83
2022/06/01 13:24:45;;;;;;;2.78;0.57;;;30.90;28.30;;;;;;6252484;28;20041;-84
2022/06/01 13:27:47;;;;;;;7.45;1.05;;;30.90;28.10;;;;;;6252358;28;20056;-84
2022/06/01 13:30:50;;;;;;;0.57;0.20;;;30.90;28.20;;;;;;6252155;28;20132;-85
2022/06/01 13:33:58;;;;;;;2.15;0.50;;;31.10;28.70;;;;;;6251771;28;20049;-80
2022/06/01 13:37:10;;;;;;;7.20;1.00;;;31.10;28.10;;;;;;6242518;28;20120;-85
2022/06/01 13:40:24;;;;;;;14.55;1.08;;;31.00;28.10;;;;;;6226687;28;20421;-85
2022/06/01 13:43:27;;;;;;;17.40;1.52;;;30.90;28.50;;;;;;6225913;28;20052;-81
2022/06/01 13:46:32;;;;;;;18.77;0.95;;;30.80;28.60;;;;;;6227639;28;20050;-84
2022/06/01 13:49:35;;;;;;;4.90;0.57;;;30.50;28.70;;;;;;6225890;28;20056;-80
2022/06/01 13:52:40;;;;;;;15.27;0.70;;;30.30;28.70;;;;;;6225670;28;20533;-80
2022/06/01 13:56:03;;;;;;;1.45;0.47;;;30.20;29.00;;;;;;6226679;28;20538;-80
2022/06/01 13:59:11;;;;;;;19.98;1.35;;;30.30;29.10;;;;;;6226727;28;20129;-82
2022/06/01 14:02:18;;;;;;;9.95;0.63;;;30.40;29.10;;;;;;6226874;28;20524;-81
2022/06/01 14:05:23;;;;;;;1.77;0.35;;;30.60;29.20;;;;;;6235253;28;20042;-81
2022/06/01 14:08:33;;;;;;;4.45;0.30;;;30.80;29.00;;;;;;6250316;28;20098;-82
2022/06/01 14:11:35;;;;;;;2.97;0.60;;;30.90;28.30;;;;;;6251165;28;20136;-82
2022/06/01 14:14:39;;;;;;;8.95;0.60;;;30.90;28.40;;;;;;6251358;28;20053;-80
2022/06/01 14:17:44;;;;;;;1.75;0.55;;;30.80;28.50;;;;;;6250143;28;20515;-81
2022/06/01 14:20:48;;;;;;;4.80;0.70;;;30.80;28.50;;;;;;6251300;28;20077;-81
2022/06/01 14:23:50;;;;;;;0.90;0.30;;;30.70;28.60;;;;;;6251209;28;20128;-81
2022/06/01 14:30:13;;;;;;;2.17;0.30;;;30.80;28.30;;;;;;6254239;28;20050;-80
2022/06/01 14:33:15;;;;;;;5.30;0.50;;;30.80;28.20;;;;;;6258643;28;20045;-87
2022/06/01 14:36:20;;;;;;;3.40;0.55;;;30.80;28.30;;;;;;6252972;28;20518;-82
2022/06/01 14:39:22;;;;;;;3.65;0.50;;;30.80;28.70;;;;;;6251057;28;20045;-83
2022/06/01 14:42:23;;;;;;;0.65;0.40;;;31.00;28.20;;;;;;6250338;28;20049;-81
2022/06/01 14:45:25;;;;;;;0.22;0.20;;;31.00;28.10;;;;;;6253334;28;20050;-84
2022/06/01 14:48:27;;;;;;;3.40;0.30;;;30.90;28.00;;;;;;6253584;28;20146;-83
2022/06/01 14:51:33;;;;;;;2.05;0.35;;;31.10;28.10;;;;;;6251872;28;20064;-82
2022/06/01 14:54:37;;;;;;;1.67;0.50;;;31.10;28.10;;;;;;6235358;28;20239;-83
2022/06/01 14:57:39;;;;;;;6.82;0.30;;;31.00;28.10;;;;;;6226040;28;20052;-82
2022/06/01 15:00:41;;;;;;;3.92;0.35;;;30.90;28.30;;;;;;6225538;28;20064;-83
2022/06/01 15:03:46;;;;;;;2.00;0.57;;;30.90;28.50;;;;;;6227271;28;20077;-83
2022/06/01 15:06:50;;;;;;;0.65;0.30;;;30.90;28.30;;;;;;6246109;28;20060;-85
2022/06/01 15:09:52;;;;;;;3.17;0.28;;;30.80;28.30;;;;;;6250456;28;20117;-84
2022/06/01 15:12:56;;;;;;;2.90;0.40;;;30.80;28.50;;;;;;6252107;28;20046;-83
2022/06/01 15:15:58;;;;;;;3.90;0.43;;;30.80;28.40;;;;;;6249323;28;20053;-83
2022/06/01 15:19:00;;;;;;;1.83;0.45;;;30.60;28.40;;;;;;6246454;28;20053;-83
2022/06/01 15:22:04;;;;;;;1.27;0.55;;;30.30;28.60;;;;;;6245501;28;20501;-83
2022/06/01 15:25:07;;;;;;;2.15;0.60;;;30.20;28.80;;;;;;6246832;28;20058;-83
2022/06/01 15:28:09;;;;;;;1.52;0.25;;;30.00;28.80;;;;;;6238265;28;20046;-84
2022/06/01 15:41:12;;;;;;;6.63;0.90;;;30.00;29.10;;;;;;6246701;28;20451;-84
2022/06/01 15:44:13;;;;;;;7.82;0.50;;;30.10;29.00;;;;;;6251776;28;20096;-84
2022/06/01 15:47:18;;;;;;;5.60;0.88;;;30.10;28.70;;;;;;6252018;28;20060;-85
2022/06/01 15:50:21;;;;;;;0.93;0.20;;;30.10;28.60;;;;;;6253072;28;20076;-84
2022/06/01 15:53:25;;;;;;;1.30;0.10;;;30.10;29.00;;;;;;6253107;28;20084;-84
2022/06/01 15:56:28;;;;;;;3.08;0.45;;;30.20;29.10;;;;;;6255842;28;20049;-83
2022/06/01 15:59:30;;;;;;;1.08;0.20;;;30.30;29.30;;;;;;6254390;28;20602;-81
2022/06/01 16:02:33;;;;;;;1.08;0.20;;;30.40;29.00;;;;;;6256697;28;20049;-82
2022/06/01 16:05:37;;;;;;;0.30;0.20;;;30.60;28.80;;;;;;6248582;28;20056;-86
2022/06/01 16:08:42;;;;;;;0.55;0.22;;;30.40;29.00;;;;;;6251768;28;20501;-82
2022/06/01 16:11:44;;;;;;;2.67;0.60;;;30.20;28.70;;;;;;6229978;28;20054;-83
2022/06/01 16:14:46;;;;;;;1.70;0.45;;;30.00;29.10;;;;;;6227993;28;20049;-83
2022/06/01 16:17:52;;;;;;;1.90;0.50;;;29.90;29.40;;;;;;6226889;28;20053;-80
2022/06/01 16:20:54;;;;;;;1.23;0.40;;;29.90;29.60;;;;;;6226664;28;20379;-80
2022/06/01 16:23:57;;;;;;;3.20;0.50;;;29.80;29.50;;;;;;6230299;28;20521;-82
2022/06/01 16:26:59;;;;;;;0.90;0.30;;;29.70;29.90;;;;;;6227526;28;20054;-83
2022/06/01 16:30:02;;;;;;;0.55;0.20;;;29.70;30.00;;;;;;6227473;28;20052;-81
2022/06/01 16:33:04;;;;;;;1.83;0.65;;;29.70;30.00;;;;;;6226793;28;20054;-80
2022/06/01 16:36:09;;;;;;;2.92;0.57;;;29.60;29.90;;;;;;6243617;28;20045;-81
2022/06/01 16:39:15;;;;;;;3.72;0.52;;;29.40;30.10;;;;;;6250162;28;20134;-82
2022/06/01 16:42:20;;;;;;;1.60;0.40;;;29.20;30.30;;;;;;6252940;28;20135;-78
2022/06/01 16:45:23;;;;;;;0.50;0.20;;;29.00;30.80;;;;;;6259738;28;20056;-83
2022/06/01 16:48:25;;;;;;;0.75;0.28;;;28.90;30.70;;;;;;6268880;28;20092;-84